x

8454000 - Providence, Ri (foxr1) Weather Station

11:54am - Wed 4th May 2016 All times are EDT. -4 hours from GMT.

  • Wind
    10mph, 18mph gusts
  • Sea Temp 50°f
  • Air Temp 50°f
  • Sea Pressure 1010.1mb
  • 8454000 - Providence, Ri
  • 8454000 - Providence, Ri

More Historic Weather Station data

Upgrade to MSW Pro to gain access to the past 30 days of data for over 8000 Wavebouys and Weather Stations around the globe.

Join Pro

Comparision Forecast

View Surf forecast
   
Wed 05/04 11:54am 10 18 mph 1010.1mb 50f 50f
11:48am 14 18 mph 1010.1mb 50f 50f
11:42am 13 17 mph 1010.1mb 50f 50f
11:36am 13 16 mph 1010.2mb 50f 51f
11:30am 13 18 mph 1010.4mb 50f 50f
11:24am 13 17 mph 1010.5mb 50f 50f
11:18am 9 15 mph 1010.7mb 50f 50f
11:12am 11 15 mph 1010.6mb 50f 50f
11:06am 9 14 mph 1010.5mb 50f 50f
11:00am 10 16 mph 1010.5mb 50f 50f
10:54am 11 15 mph 1010.5mb 50f 50f
10:48am 10 14 mph 1010.7mb 50f -
10:42am 10 15 mph 1010.6mb 50f -
10:36am 9 16 mph 1010.8mb 50f -
10:30am 10 13 mph 1010.9mb 50f 50f
10:24am 9 14 mph 1010.4mb 50f 50f
10:18am 13 16 mph 1010.2mb 50f 49f
10:12am 9 15 mph 1010.3mb 50f 49f
10:06am 11 14 mph 1010.3mb 50f 49f
10:00am 13 16 mph 1010.1mb 50f 49f
9:54am 10 14 mph 1010mb 50f 49f
9:48am 8 15 mph - - -
9:42am 8 17 mph - - -
9:36am 9 16 mph - - -
9:30am 10 16 mph 1009.7mb 50f 49f
9:24am 9 11 mph 1009.7mb 50f 49f
9:18am 10 15 mph 1009.8mb 50f 49f
9:12am 10 13 mph 1009.7mb 50f 48f
9:06am 10 14 mph 1009.8mb 50f 48f
9:00am 8 11 mph 1009.9mb 50f 48f
8:54am 10 13 mph 1009.9mb 50f 48f
8:48am 8 13 mph 1010mb 50f 48f
8:42am 7 13 mph 1010.1mb 50f 48f
8:36am 8 13 mph 1010.1mb 50f 47f
8:30am 11 15 mph 1010.2mb 50f 47f
8:24am 8 10 mph 1010.5mb 50f 47f
8:18am 7 11 mph 1010.5mb 50f 47f
8:12am 7 10 mph 1010.5mb 50f 47f
8:06am 8 14 mph 1010.5mb 50f 47f
8:00am 6 10 mph 1010.5mb 50f 47f
7:54am 7 10 mph 1010.4mb 50f 47f
7:48am 9 11 mph 1010.4mb 50f 47f
7:42am 9 11 mph 1010.4mb 50f 46f
7:36am 8 10 mph 1010.3mb 50f 46f
7:30am 7 10 mph 1010.4mb 50f 46f
7:24am 7 10 mph 1010.5mb 50f 46f
7:18am 9 10 mph 1010.5mb 50f 46f
7:12am 8 10 mph 1010.5mb 50f 46f
7:06am 7 9 mph 1010.6mb 50f 46f
7:00am 8 10 mph 1010.6mb 50f 46f
6:54am 7 9 mph 1010.6mb 50f 46f
6:48am 6 7 mph 1010.7mb 50f 46f
6:42am 5 9 mph 1010.7mb 50f 46f
6:36am 7 10 mph 1010.4mb 50f 46f
6:30am 7 11 mph 1010.2mb 50f 46f
6:24am 7 9 mph 1010.2mb 50f 46f
6:18am 8 10 mph 1010.3mb 50f 46f
6:12am 7 10 mph 1010.1mb 50f 46f
6:06am 7 10 mph 1010mb 50f 46f
6:00am 6 9 mph 1009.9mb 50f 46f
5:54am 6 8 mph 1010mb 50f 46f
5:48am 3 7 mph 1009.9mb 50f 46f
5:42am 7 9 mph 1009.7mb 51f 46f
5:36am 8 10 mph 1009.5mb 51f 46f
5:30am 9 14 mph 1009.5mb 51f 46f
5:24am 11 13 mph 1009.2mb 51f 46f
5:18am 10 13 mph 1009.4mb 51f 46f
5:12am 11 13 mph 1009.5mb 51f 46f
5:06am 10 11 mph 1009.6mb 51f 46f
5:00am 9 11 mph 1009.9mb 51f 46f
4:54am 9 11 mph 1009.9mb 51f 46f
4:48am 7 10 mph 1010.1mb 51f 46f
4:42am 7 9 mph 1010mb 51f 46f
4:36am 8 13 mph 1009.9mb 51f 46f
4:30am 7 10 mph 1009.9mb 51f 46f
4:24am 8 13 mph 1009.7mb 51f 46f
4:18am 9 11 mph 1009.6mb 51f 46f
4:12am 9 13 mph 1009.6mb 51f 47f
4:06am 8 10 mph 1009.6mb 51f 47f
4:00am 6 9 mph 1009.7mb 51f 47f
3:54am 8 11 mph 1009.5mb 51f 47f
3:48am 8 11 mph 1009.4mb 51f 47f
3:42am 9 13 mph 1009.4mb 51f 47f
3:36am 9 11 mph 1009.4mb 51f 47f
3:30am 8 13 mph 1009.5mb 51f 47f
3:24am 8 9 mph 1009.6mb 51f 47f
3:18am 7 9 mph 1009.7mb 51f 47f
3:12am 8 9 mph 1009.6mb 51f 47f
3:06am 6 8 mph 1009.6mb 51f 47f
3:00am 7 10 mph 1009.7mb 51f 47f
2:54am 8 10 mph 1009.6mb 51f 47f
2:48am 7 9 mph 1009.6mb 51f 47f
2:42am 6 10 mph 1009.6mb 51f 47f
2:36am 8 10 mph 1009.5mb 51f 47f
2:30am 7 10 mph 1009.5mb 51f 47f
2:24am 8 9 mph 1009.5mb 51f 47f
2:18am 6 9 mph 1009.8mb 51f 47f
2:12am 8 9 mph 1009.7mb 51f 47f
2:06am 6 9 mph 1009.5mb 51f 47f
2:00am 7 9 mph 1009.6mb 51f 47f
1:54am 7 9 mph 1009.6mb 51f 47f
1:48am  -  mph 1009.7mb 51f 47f
1:42am  -  mph 1009.5mb 51f 47f
1:36am  -  mph 1009.5mb 51f 47f
1:30am 7 9 mph 1009.6mb 51f 47f
1:24am 9 10 mph 1009.8mb 51f 47f
1:18am 9 10 mph 1009.8mb 51f 47f
1:12am 8 11 mph 1009.9mb 51f 47f
1:06am 6 8 mph 1010mb 51f 47f
1:00am 5 7 mph 1010mb 51f 48f
12:54am 6 8 mph 1010.1mb 51f 48f
12:48am 6 8 mph 1010mb 51f 48f
12:42am 5 8 mph 1010.2mb 51f 48f
12:36am 5 7 mph 1010.3mb 51f 48f
12:30am 6 7 mph 1010.3mb 51f 48f
12:24am 3 7 mph 1010.3mb 51f 48f
12:18am 6 8 mph 1010.2mb 51f 48f
12:12am 6 7 mph 1010.2mb 51f 48f
12:06am 6 8 mph 1010.2mb 51f 48f
12:00am 6 8 mph 1010.2mb 51f 48f
Tue 05/03 11:54pm 3 7 mph 1010.4mb 51f 48f
11:48pm  -  mph 1010.5mb 51f 48f
11:42pm  -  mph 1010.4mb 51f 48f
11:36pm  -  mph 1010.5mb 51f 48f
11:30pm 5 7 mph 1010.5mb 51f 48f
11:24pm 5 7 mph 1010.6mb 51f 48f
11:18pm 5 7 mph 1010.6mb 51f 48f
11:12pm 6 9 mph 1010.6mb 51f 48f
11:06pm 7 8 mph 1010.5mb 51f 48f
11:00pm 7 8 mph 1010.5mb 51f 48f
10:54pm 7 8 mph 1010.5mb 51f 48f
10:48pm  -  mph 1010.7mb 51f 48f
10:42pm  -  mph 1010.8mb 51f 48f
10:36pm  -  mph 1010.8mb 51f 48f
10:30pm  -  mph 1010.8mb 51f 48f
10:24pm  -  mph 1010.7mb 51f 48f
10:18pm  -  mph 1010.8mb 51f 48f
10:12pm  -  mph 1010.8mb 51f 48f
10:06pm  -  mph 1010.7mb 51f 48f
10:00pm  -  mph 1010.6mb 51f 48f
9:54pm  -  mph 1010.6mb 51f 48f
9:48pm  -  mph 1010.9mb 50f -
9:42pm  -  mph 1011mb 50f -
9:36pm  -  mph 1011mb 50f -
9:30pm 7 8 mph 1011mb 50f 49f
9:24pm 8 9 mph 1010.9mb 50f 48f
9:18pm  -  mph 1010.8mb 50f 49f
9:12pm  -  mph 1010.6mb 50f 49f
9:06pm  -  mph 1010.5mb 50f 49f
9:00pm  -  mph 1010.7mb 50f 49f
8:54pm  -  mph 1010.9mb 50f 49f
8:48pm  -  mph 1010.8mb 50f -
8:42pm  -  mph 1010.6mb 50f -
8:36pm  -  mph 1010.6mb 50f -
8:30pm 6 8 mph 1010.5mb 50f -
8:24pm 6 7 mph 1010.3mb 50f -
8:18pm  -  mph 1010.2mb 50f 49f
8:12pm  -  mph 1010.1mb 50f 49f
8:06pm  -  mph 1010.2mb 50f 49f
8:00pm  -  mph 1010.1mb 50f -
7:54pm  -  mph 1010mb 50f -
7:48pm  -  mph 1010.1mb 50f -
7:42pm  -  mph 1009.9mb 50f -
7:36pm  -  mph 1009.7mb 50f -
7:30pm  -  mph 1009.9mb 50f -
7:24pm  -  mph 1009.9mb 50f -
7:18pm  -  mph 1009.8mb 50f 49f
7:12pm  -  mph 1009.9mb 50f 49f
7:06pm  -  mph 1009.8mb 50f 50f
7:00pm  -  mph 1009.8mb 50f 50f
6:54pm  -  mph 1009.8mb 50f 50f
6:48pm  -  mph 1009.7mb 50f 50f
6:42pm  -  mph 1009.5mb 50f 50f
6:36pm  -  mph 1009.5mb 50f 50f
6:30pm 7 9 mph 1009.5mb 50f 50f
6:24pm 7 10 mph 1009.5mb 50f 50f
6:18pm  -  mph 1009.5mb 50f 50f
6:12pm  -  mph 1009.6mb 50f 50f
6:06pm  -  mph 1009.4mb 50f 50f
6:00pm  -  mph 1009.4mb 50f 50f
5:54pm  -  mph 1009.6mb 50f 50f
5:48pm  -  mph 1009.6mb 50f 50f
5:42pm  -  mph 1009.6mb 51f 50f
5:36pm  -  mph 1009.4mb 51f 51f
5:30pm 7 10 mph 1009.3mb 51f 50f
5:24pm 7 11 mph 1009.3mb 51f 50f
5:18pm 11 13 mph 1009.2mb 51f 50f
5:12pm 7 10 mph 1009.2mb 51f 51f
5:06pm 7 11 mph 1009.3mb 51f 50f
5:00pm 9 11 mph 1009.3mb 51f 50f
4:54pm 7 11 mph 1009.4mb 51f 50f
4:48pm 8 10 mph 1009.5mb 51f 50f
4:42pm 9 11 mph 1009.5mb 51f 50f
4:36pm 8 11 mph 1009.5mb 51f 50f
4:30pm 7 9 mph 1009.5mb - -
4:24pm 9 11 mph 1009.6mb - -
4:18pm 8 10 mph 1009.5mb 51f 50f
4:12pm 7 10 mph 1009.5mb 51f 50f
4:06pm 7 10 mph 1009.5mb 51f 50f
4:00pm 8 11 mph 1009.4mb 51f 50f
3:54pm 8 10 mph 1009.5mb 51f 50f
3:48pm 9 14 mph 1009.7mb 51f 50f
3:42pm 11 14 mph 1009.7mb 51f 50f
3:36pm 8 11 mph 1009.8mb 51f 50f
3:30pm 9 11 mph 1009.8mb 51f 51f
3:24pm 9 11 mph 1009.9mb 51f 51f
3:18pm 8 10 mph 1009.9mb 51f 51f
3:12pm 10 13 mph 1009.9mb 51f 51f
3:06pm 9 10 mph 1010mb 51f 51f
3:00pm 7 10 mph 1010.1mb 51f 51f
2:54pm 7 11 mph 1010mb 51f 51f
2:48pm 10 13 mph 1009.9mb 51f 51f
2:42pm 8 9 mph 1010mb 51f 51f
2:36pm 8 9 mph 1010mb 51f 51f
2:30pm 8 10 mph 1010.1mb 51f 51f
2:24pm 7 9 mph 1010.1mb 51f 51f
2:18pm 6 9 mph 1010.1mb 51f 51f
2:12pm 9 10 mph 1010mb 51f 51f
2:06pm 6 8 mph 1009.9mb 51f 51f
2:00pm 3 8 mph 1010.1mb 51f 51f
1:54pm 7 9 mph 1010.1mb 51f 51f
1:48pm 5 7 mph 1010.2mb 51f 51f
1:42pm 5 8 mph 1010.1mb 51f 51f
1:36pm 6 8 mph 1010.2mb 51f 51f
1:30pm 7 8 mph 1010.5mb 51f 51f
1:24pm 5 8 mph 1010.5mb 51f 51f
1:18pm 6 8 mph 1010.5mb 51f 51f
1:12pm 5 7 mph 1010.5mb 51f 51f
1:06pm 5 8 mph 1010.4mb 51f 51f
1:00pm 5 8 mph 1010.4mb 51f 51f
12:54pm 5 8 mph 1010.4mb 51f 51f
12:48pm 5 8 mph 1010.3mb 51f 51f
12:42pm 6 9 mph 1010.4mb 51f 51f
12:36pm 5 8 mph 1010.4mb 51f 50f
12:30pm 5 7 mph 1010.5mb 51f 50f
12:24pm 5 8 mph 1010.6mb 51f 50f
12:18pm 3 7 mph 1010.8mb 51f 50f
12:12pm 6 7 mph 1010.8mb 51f 50f
12:06pm 5 9 mph 1011mb 51f 50f
12:00pm 5 9 mph 1011.1mb 51f 50f
11:54am 6 9 mph 1011.2mb 51f 50f
11:48am 3 7 mph 1011.3mb 51f 50f
11:42am 3 8 mph 1011.4mb 51f 50f
11:36am 5 8 mph 1011.5mb 51f 50f
11:30am 3 7 mph 1011.5mb 51f 49f
11:24am 6 9 mph 1011.6mb 51f 49f
11:18am 5 7 mph 1011.7mb 51f 49f
11:12am 3 7 mph 1011.8mb 51f 49f
11:06am 2 6 mph 1011.9mb 51f 49f
11:00am 3 6 mph 1012.1mb 51f 49f
10:54am 5 7 mph 1012.1mb 51f 49f
10:48am 3 6 mph 1012.2mb - -
10:42am 3 7 mph 1012.2mb - -
10:36am 5 7 mph 1012.2mb - -
10:30am 3 5 mph 1012.1mb 51f 49f
10:24am 3 7 mph 1012mb 51f 49f
10:18am 5 7 mph 1012.1mb 51f 49f
10:12am 2 5 mph 1012.1mb 51f 49f
10:06am 3 6 mph 1012.1mb 51f 49f
10:00am 2 5 mph 1012.2mb 51f 49f
9:54am 3 7 mph 1012.2mb 51f 49f
9:48am 2 7 mph 1012.2mb 51f 48f
9:42am 6 8 mph 1012.1mb 51f 48f
9:36am  -  6 mph 1012.1mb 51f 48f
9:30am 3 6 mph 1012mb 51f 48f
9:24am 3 6 mph 1012mb 51f 48f
9:18am 1 3 mph 1012.1mb 51f 48f
9:12am 2 6 mph 1012.1mb 51f 48f
9:06am 5 6 mph 1012.1mb 51f 48f
9:00am 3 7 mph 1012.1mb 51f 48f
8:54am 3 7 mph 1012.1mb 51f 48f
8:48am 5 7 mph 1012.1mb 51f 48f
8:42am 3 6 mph 1012.2mb 51f 48f
8:36am 5 6 mph 1012.2mb 51f 48f
8:30am 3 7 mph 1012.1mb 51f 48f
8:24am 5 7 mph 1012mb 51f 48f
8:18am 6 8 mph 1012mb 51f 48f
8:12am 3 7 mph 1012mb 51f 48f
8:06am 5 7 mph 1012mb 51f 48f
8:00am 5 7 mph 1012mb 51f 48f
7:54am 5 8 mph 1012.1mb 51f 48f
7:48am 5 7 mph 1012mb 51f 48f
7:42am 5 7 mph 1012mb 51f 48f
7:36am 6 7 mph 1012.1mb 51f 48f
7:30am 6 7 mph 1012.1mb 51f 48f
7:24am 5 7 mph 1012.1mb 51f 48f
7:18am 6 8 mph 1012.1mb 51f 48f
7:12am 6 8 mph 1012.1mb 51f 48f
7:06am 6 7 mph 1012.1mb 51f 48f
7:00am 5 7 mph 1012.1mb 51f 48f
6:54am 6 7 mph 1012.1mb 51f 48f
6:48am 5 7 mph 1012.1mb 51f 48f
6:42am 5 7 mph 1012.2mb 51f 48f
6:36am 6 7 mph 1012.2mb 51f 48f
6:30am 5 6 mph 1012.3mb 51f 48f
6:24am 5 7 mph 1012.4mb 51f 48f
6:18am 6 8 mph 1012.5mb 51f 48f
6:12am 8
mph
1012.8mb 51f 48f
6:06am 6 8 mph 1012.8mb 51f 49f
6:00am 7 8 mph 1012.8mb 51f 48f
5:54am 7 8 mph 1012.6mb 51f 48f
5:48am 5 7 mph 1012.5mb 51f 48f
5:42am 6 7 mph 1012.1mb 51f 48f
5:36am 5 6 mph 1011.9mb 51f 48f
5:30am 5 6 mph 1012mb 51f 49f
5:24am 6 7 mph 1012.1mb 51f 49f
5:18am 5 6 mph 1012mb 51f 49f
5:12am 3 5 mph 1012.1mb 51f 49f
5:06am 3 6 mph 1011.9mb 51f 49f
5:00am 3 6 mph 1011.9mb 51f 49f
4:54am 3 6 mph 1011.9mb 51f 49f
4:48am 5
mph
1012.3mb 51f 49f
4:42am 6 7 mph 1012.5mb 51f 49f
4:36am 6 8 mph 1012.5mb 51f 49f
4:30am 7 8 mph 1012.8mb 51f 49f
4:24am 5 7 mph 1012.9mb 51f 49f
4:18am 6 8 mph 1013.3mb 51f 49f
4:12am 6 7 mph 1013.2mb 51f 49f
4:06am 5 7 mph 1013.1mb 51f 49f
4:00am 6 7 mph 1013.2mb 51f 49f
3:54am 5 6 mph 1012.8mb 51f 49f
3:48am 3 5 mph 1012.6mb 51f 49f
3:42am 3 5 mph 1012.2mb 51f 49f
3:36am 2 5 mph 1011.9mb 51f 49f
3:30am 2 6 mph 1011.6mb 51f 50f
3:24am 3 5 mph 1011.5mb 51f 50f
3:18am  -  6 mph 1012mb 51f 50f
3:12am 3 7 mph 1011.5mb 51f 50f
3:06am 2 5 mph 1011.7mb 51f 50f
3:00am 2 5 mph 1011.8mb 51f 50f
2:54am 2 5 mph 1012.1mb 51f 50f
2:48am 3 7 mph 1011.9mb 51f 50f
2:42am 5 8 mph 1011.6mb 51f 50f
2:36am 5 8 mph 1011.7mb 51f 50f
2:30am 2 8 mph 1012mb 51f 50f
2:24am 3 8 mph 1012mb 51f 50f
2:18am 3 8 mph 1012.1mb 51f 51f
2:12am 3 8 mph 1012.3mb 51f 51f
2:06am 3 7 mph 1012.2mb 51f 51f
2:00am 3 7 mph 1012.4mb 52f 51f
1:54am 3 7 mph 1012.5mb 52f 51f
1:48am 3 6 mph 1012.5mb 52f 51f
1:42am 2 5 mph 1012.7mb 52f 51f
1:36am 3 6 mph 1012.6mb 52f 51f
1:30am 5 6 mph 1012.8mb 52f 51f
1:24am 5 7 mph 1012.8mb 52f 51f
1:18am 6 7 mph 1012.9mb 52f 51f
1:12am 5 8 mph 1012.8mb 52f 51f
1:06am 6 8 mph 1012.9mb 52f 51f
1:00am 3 5 mph 1013mb 52f 51f
12:54am  -  6 mph 1013mb 52f 51f
12:48am 3 6 mph 1013.1mb 52f 51f
12:42am 3 6 mph 1013.1mb 52f 51f
12:36am 2 6 mph 1013.1mb 52f 51f
12:30am 2 3 mph 1013.1mb 52f 51f
12:24am  -  5 mph 1013.4mb 52f 51f
12:18am 2 5 mph 1013.3mb 52f 51f
12:12am 2 6 mph 1013mb 52f 51f
12:06am 5 8 mph 1013mb 52f 51f
12:00am 5 7 mph 1013.1mb 52f 51f
Mon 05/02 11:54pm 5 7 mph 1013mb 52f 51f
11:48pm 3 6 mph 1013.4mb 52f 51f
11:42pm 3 8 mph 1013.2mb 52f 51f
11:36pm 3 7 mph 1013.1mb 52f 51f
11:30pm 5 9 mph 1013mb 52f 52f
11:24pm 3 9 mph 1012.8mb 52f 52f
11:18pm 6 10 mph 1012.9mb 52f 51f
11:12pm 5 7 mph 1012.9mb 52f 52f
11:06pm 2 6 mph 1012.9mb 52f 52f
11:00pm 2 9 mph 1012.9mb 52f 52f
10:54pm 6 10 mph 1013mb 52f 52f
10:48pm  -  mph 1012.9mb 52f -
10:42pm  -  mph 1013.1mb 52f -
10:36pm  -  mph 1013mb 52f -
10:30pm 5 9 mph 1013.1mb 52f 53f
10:24pm 7 11 mph 1012.9mb 52f 54f
10:18pm  -  mph 1013.1mb 52f 54f
10:12pm  -  mph 1012.9mb 52f 54f
10:06pm  -  mph 1012.9mb 52f 54f
10:00pm  -  mph 1012.8mb 52f 54f
9:54pm  -  mph 1012.9mb 52f 54f
9:48pm 6 8 mph 1012.8mb 52f -
9:42pm 5 9 mph 1012.8mb 52f -
9:36pm 6 7 mph 1012.5mb 52f -
9:30pm 6 7 mph 1012.5mb 52f -
9:24pm 9 13 mph 1012.4mb 52f -
9:18pm  -  mph 1012.4mb 52f 55f
9:12pm  -  mph 1012.7mb 52f 55f
9:06pm  -  mph 1012.9mb 52f 56f
9:00pm  -  mph 1012.9mb 52f 56f
8:54pm  -  mph 1012.9mb 52f 56f
8:48pm 5 9 mph 1012.6mb 52f -
8:42pm 8 10 mph 1012.2mb 51f -
8:36pm 7 8 mph 1012.1mb 51f -
8:30pm 6 7 mph 1012mb 51f 56f
8:24pm 5 6 mph 1011.9mb 51f 56f
8:18pm  -  mph 1011.8mb 51f 56f
8:12pm  -  mph 1011.4mb 51f 56f
8:06pm  -  mph 1011.3mb 51f 56f
8:00pm  -  mph 1011.4mb 51f 56f
7:54pm  -  mph 1011.5mb 51f 56f
7:48pm  -  mph 1011.3mb - -
7:42pm  -  mph 1011.4mb - -
7:36pm  -  mph 1011.6mb - -
7:30pm  -  mph - 51f -
7:24pm  -  mph - 51f -
7:18pm 10 14 mph 1011.5mb 51f -
7:12pm 8 11 mph 1011.5mb 51f -
7:06pm 8 11 mph 1011.5mb 51f -
7:00pm 8 13 mph 1011.3mb 51f 56f
6:54pm 7 11 mph 1011.2mb 51f 56f
6:48pm  -  mph 1011.1mb - -
6:42pm  -  mph 1011mb - -
6:36pm  -  mph 1011mb - -
6:30pm  -  mph 1010.9mb 51f -
6:24pm  -  mph 1010.9mb 51f -
6:18pm  -  mph 1010.9mb 51f 56f
6:12pm  -  mph 1010.9mb 51f 56f
6:06pm  -  mph 1010.8mb 51f 56f
6:00pm  -  mph 1010.6mb 51f 56f
5:54pm  -  mph 1010.5mb 51f 57f
5:48pm  -  mph 1010.3mb 51f -
5:42pm  -  mph 1010.1mb 51f -
5:36pm  -  mph 1010mb 51f -
5:30pm 6 10 mph 1010mb 51f 57f
5:24pm 7 10 mph 1010.2mb 51f 57f
5:18pm 6 11 mph 1010.2mb 51f 57f
5:12pm 6 10 mph 1010.1mb 51f 57f
5:06pm 7 10 mph 1010.2mb 51f 57f
5:00pm 8 13 mph 1010.3mb 51f 57f
4:54pm 8 10 mph 1010.3mb 51f 57f
4:48pm 9 11 mph 1010.4mb 51f 57f
4:42pm 6 8 mph 1010.3mb 52f 57f
4:36pm 5 7 mph 1010.3mb 52f 57f
4:30pm 6 8 mph 1010.3mb 52f 57f
4:24pm 7 9 mph 1010.2mb 52f 56f
4:18pm 6 7 mph 1010.2mb 52f 56f
4:12pm 3 6 mph 1010.1mb 52f 56f
4:06pm 3 5 mph 1010.3mb 52f 56f
4:00pm 5 7 mph 1010.6mb 52f 56f
3:54pm 5 6 mph 1010.6mb 52f 56f
3:48pm  -  5 mph 1010.8mb 52f 56f
3:42pm 2 6 mph 1010.8mb 52f 56f
3:36pm 2 5 mph 1011mb 52f 56f
3:30pm 3 8 mph 1011mb 52f 55f
3:24pm 3 5 mph 1011.1mb 52f 55f
3:18pm 2 5 mph 1011.1mb 52f 54f
3:12pm 1 2 mph 1011mb 52f 54f
3:06pm 2
mph
1011.2mb 52f 54f
3:00pm 2
mph
1011.1mb 52f 53f
2:54pm  -  1 mph 1011.1mb 52f 54f
2:48pm  -  1 mph 1011.2mb 52f 54f
2:42pm  -  1 mph 1011.3mb 52f 54f
2:36pm  -  2 mph 1011.3mb 52f 53f
2:30pm  -  2 mph 1011.3mb 52f 53f
2:24pm  -  2 mph 1011.3mb 52f 53f
2:18pm  -  3 mph 1011.4mb 52f 53f
2:12pm 1 3 mph 1011.5mb 52f 52f
2:06pm 2 5 mph 1011.6mb 52f 52f
2:00pm 2 5 mph 1011.8mb 52f 52f
1:54pm 2 3 mph 1011.9mb 52f 52f
1:48pm 2 3 mph 1012mb 52f 51f
1:42pm 2 5 mph 1012.1mb 52f 51f
1:36pm 2 3 mph 1012.2mb 52f 52f
1:30pm 2 6 mph 1012.3mb 52f 52f
1:24pm 2 5 mph 1012.3mb 52f 52f
1:18pm  -  6 mph 1012.4mb 52f 52f
1:12pm 3 7 mph 1012.5mb 52f 51f
1:06pm 3 6 mph 1013.1mb 52f 51f
1:00pm 6 9 mph 1013.2mb 52f 51f
12:54pm 8 10 mph 1013.4mb 52f 51f
12:48pm 5 9 mph 1013.8mb 52f 51f
12:42pm 8 10 mph 1013.8mb 52f 51f
12:36pm 7 11 mph 1013.8mb 52f 51f
12:30pm 8 11 mph 1014.2mb 52f 51f
12:24pm 7 25 mph 1013.4mb 52f 51f
12:18pm 9 14 mph 1014.6mb 53f 52f
12:12pm 5 8 mph 1011.9mb 53f 51f
12:06pm 5 8 mph 1011.7mb 53f 51f
12:00pm 2 8 mph 1012.2mb 53f 51f
11:54am 7 8 mph 1012.3mb 53f 51f
11:48am 5 8 mph 1012.5mb 53f 51f
11:42am 3 7 mph 1012.7mb 53f 51f
11:36am 3 7 mph 1013mb 53f 51f
11:30am 3 8 mph 1013.2mb 53f 51f
11:24am 5 9 mph 1013.1mb 53f 51f
11:18am 5 9 mph 1013.3mb 53f 50f
11:12am 3 9 mph 1013.5mb 53f 50f
11:06am 5 8 mph 1013.6mb 53f 50f
11:00am 3 8 mph 1013.7mb 53f 50f
10:54am 3 8 mph 1013.8mb 53f 51f
10:48am 5 8 mph 1014mb 53f 51f
10:42am 2 7 mph 1014.1mb 53f 50f
10:36am 3 7 mph 1014.2mb 53f 50f
10:30am 5 9 mph 1014.2mb 53f 50f
10:24am 3 7 mph 1014.5mb 53f 50f
10:18am 2 6 mph 1014.5mb 53f 50f
10:12am 3 6 mph 1014.6mb 53f 50f
10:06am 2 6 mph 1014.7mb 53f 50f
10:00am 3 6 mph 1014.6mb 53f 50f
9:54am 1 6 mph 1014.8mb 53f 50f
9:48am 2 6 mph 1015mb 53f -
9:42am 2 6 mph 1015.1mb 53f -
9:36am 2 6 mph 1015.3mb 53f -
9:30am 2 8 mph 1015.4mb 53f 49f
9:24am 1 7 mph 1015.4mb 53f 49f
9:18am 3 6 mph 1015.4mb 53f 49f
9:12am 2 6 mph 1015.3mb 53f 49f
9:06am 2 8 mph 1015.6mb 53f 49f
9:00am 3 6 mph 1015.7mb 53f 49f
8:54am 5 7 mph 1015.7mb 53f 48f
8:48am 3 8 mph 1015.6mb 53f 48f
8:42am 2 8 mph 1015.6mb 53f 48f
8:36am 3 7 mph 1015.4mb 53f 48f
8:30am 3 9 mph 1015.3mb 53f 48f
8:24am 3 9 mph 1015.5mb 53f 48f
8:18am 5 8 mph 1015.7mb 53f 48f
8:12am 5 8 mph 1015.7mb 53f 48f
8:06am 2 7 mph 1015.6mb 53f 48f
8:00am 5 9 mph 1015.6mb 53f 47f
7:54am 6 10 mph 1015.8mb 53f 47f
7:48am 5 9 mph 1015.8mb 53f 47f
7:42am 3 8 mph 1015.7mb 53f 47f
7:36am 3 6 mph 1015.8mb 53f 47f
7:30am 2 7 mph 1015.7mb 52f 47f
7:24am 2 8 mph 1015.9mb 52f 47f
7:18am 5 8 mph 1016.1mb 52f 46f
7:12am 2 7 mph 1016.1mb 52f 46f
7:06am 2 7 mph 1015.9mb 52f 46f
7:00am 2 7 mph 1015.8mb 52f 46f
6:54am 3 10 mph 1016.1mb 52f 46f
6:48am 3 8 mph 1016.3mb 52f 46f
6:42am 5 8 mph 1016.2mb 52f 46f
6:36am 3 8 mph 1016.2mb 52f 46f
6:30am 5 8 mph 1016.2mb 52f 46f
6:24am 2 7 mph 1016.2mb 52f 46f
6:18am 2 7 mph 1016.2mb 52f 46f
6:12am 3 7 mph 1016.1mb 52f 46f
6:06am 2 7 mph 1015.9mb 52f 46f
6:00am 5 9 mph 1015.9mb 52f 46f
5:54am 6 9 mph 1016mb 52f 45f
5:48am 5 9 mph 1016mb 52f 45f
5:42am 6 8 mph 1016mb 52f 45f
5:36am 6 9 mph 1015.8mb 52f 46f
5:30am 6 8 mph 1015.8mb 52f 46f
5:24am 7 9 mph 1015.9mb 52f 45f
5:18am 6 9 mph 1016.1mb 52f 45f
5:12am 5 7 mph 1016mb 52f 45f
5:06am 1 7 mph 1015.7mb 52f 45f
5:00am 5 8 mph 1015.9mb 52f 45f
4:54am 1 6 mph 1015.7mb 52f 45f
4:48am 2 8 mph 1016mb 52f 45f
4:42am 1 8 mph 1016.2mb 52f 45f
4:36am 3 9 mph 1016.1mb 53f 45f
4:30am 3 9 mph 1016.2mb 53f 45f
4:24am 5 8 mph 1016.3mb 53f 45f
4:18am 3 7 mph 1016.1mb 53f 45f
4:12am 2 7 mph 1016.3mb 53f 45f
4:06am 2 9 mph 1016.3mb 53f 45f
4:00am 6 10 mph 1016.7mb 53f 45f
3:54am 7 10 mph 1016.6mb 53f 45f
3:48am 9 11 mph 1016.7mb 53f 45f
3:42am 6 8 mph 1016.7mb 53f 45f
3:36am 5 7 mph 1016.8mb 53f 46f
3:30am 5 7 mph 1016.8mb 53f 46f
3:24am 5 8 mph 1016.9mb 53f 45f
3:18am 3 7 mph 1016.9mb 53f 45f
3:12am 3 9 mph 1016.8mb 53f 45f
3:06am 5 9 mph 1016.8mb 53f 45f
3:00am 3 8 mph 1016.8mb 53f 45f
2:54am 5 8 mph 1016.8mb 53f 45f
2:48am 3 8 mph 1016.8mb - -
2:42am 3 8 mph 1016.8mb - -
2:36am 1 7 mph 1016.7mb - -
2:30am 2 3 mph 1016.8mb 53f 45f
2:24am 1 5 mph 1016.7mb 53f 44f
2:18am 1 5 mph 1016.8mb 53f 44f
2:12am 2 5 mph 1017mb 53f 44f
2:06am 2 6 mph 1017.3mb 53f 44f
2:00am 2 5 mph 1017.4mb 53f 44f
1:54am 2 6 mph 1017.5mb 53f 44f
1:48am 2 6 mph 1017.5mb 53f 44f
1:42am 2 8 mph - - -
1:36am 2 6 mph - - -
1:30am 1 6 mph 1017.7mb 53f 44f
1:24am 3 5 mph 1017.6mb 53f 44f
1:18am 2 6 mph 1017.8mb 53f 44f
1:12am 2 6 mph 1017.9mb 53f 44f
1:06am 1 5 mph 1018mb 53f 44f
1:00am 2 6 mph 1018mb 53f 44f
12:54am  -  5 mph 1018.2mb 53f 44f
12:48am 3 6 mph 1018.3mb 53f 43f
12:42am 2 7 mph 1018.3mb 53f 43f
12:36am 3 8 mph 1018.4mb 53f 43f
12:30am 2 7 mph 1018.5mb 53f 43f
12:24am 6 8 mph 1018.6mb 53f 43f
12:18am 3 7 mph 1018.7mb 54f 43f
12:12am 3 6 mph 1018.6mb 54f 43f
12:06am 3 6 mph 1018.5mb 54f 43f
12:00am 2 7 mph 1018.5mb 54f 43f
Sun 05/01 11:54pm 3 8 mph 1018.7mb 54f 43f
11:48pm 3 8 mph 1018.8mb 54f 43f
11:42pm 3 8 mph 1018.7mb 54f 43f
11:36pm 3 6 mph 1018.6mb 54f 43f
11:30pm 2 5 mph 1018.8mb 54f 42f
11:24pm 2 5 mph 1018.8mb 54f 42f
11:18pm 3 5 mph 1018.9mb 54f 42f
11:12pm 3 6 mph 1019.1mb 54f 42f
11:06pm 3 5 mph 1019.4mb 54f 42f
11:00pm  -  mph 1019.5mb 54f 42f
10:54pm  -  mph 1019.4mb 54f 42f
10:48pm  -  mph 1019.6mb 54f -
10:42pm  -  mph 1019.8mb 54f -
10:36pm  -  mph 1019.9mb 54f -
10:30pm  -  mph 1020mb 54f -
10:24pm  -  mph 1020.1mb 54f -
10:18pm  -  mph 1020.1mb 54f -
10:12pm  -  mph 1020.3mb 54f -
10:06pm  -  mph 1020.3mb 54f -
10:00pm 3 5 mph 1020.2mb 54f 42f
9:54pm 2 5 mph 1020.2mb 54f 42f
9:48pm  -  mph 1020.3mb 54f -
9:42pm  -  mph 1020.3mb 54f -
9:36pm  -  mph 1020.5mb 54f -
9:30pm  -  mph - 54f -
9:24pm  -  mph - 54f -
9:18pm 3 5 mph 1020.6mb 54f 42f
9:12pm 2 5 mph 1020.7mb 54f 41f
9:06pm 2 6 mph 1020.9mb 54f 42f
9:00pm  -  mph 1020.7mb 54f 42f
8:54pm  -  mph 1020.6mb 54f 42f
8:48pm  -  mph 1020.4mb 54f -
8:42pm  -  mph 1020.7mb 54f -
8:36pm  -  mph 1020.9mb 54f -
8:30pm 5 7 mph 1020.9mb 54f -
8:24pm 6 7 mph 1021.1mb 54f -
8:18pm  -  mph - 54f -
8:12pm  -  mph - 54f -
8:06pm  -  mph - 54f -
8:00pm  -  mph - 54f -
7:54pm  -  mph - 54f -
7:48pm  -  mph - 54f -
7:42pm  -  mph - 54f -
7:36pm  -  mph - 54f -
7:30pm 6 8 mph 1021.4mb 54f 43f
7:24pm 6 8 mph 1021.5mb 54f 43f
7:18pm 6 8 mph 1021.5mb 54f -
7:12pm 6 8 mph 1021.5mb 54f -
7:06pm 6 9 mph 1021.5mb 54f -
7:00pm  -  mph 1021.5mb 54f 43f
6:54pm  -  mph 1021.5mb 54f 44f
6:48pm  -  mph 1021.5mb 54f 44f
6:42pm  -  mph 1021.5mb 54f 44f
6:36pm  -  mph 1021.5mb 54f 44f
6:30pm  -  mph 1021.5mb 54f 45f
6:24pm  -  mph 1021.5mb 54f 45f
6:18pm 9 11 mph 1021.5mb 54f -
6:12pm 8 11 mph 1021.7mb 54f -
6:06pm 9 10 mph 1021.8mb 54f -
6:00pm 11 14 mph 1021.8mb 54f 45f
5:54pm 11 15 mph 1021.8mb 54f 45f
5:48pm  -  mph 1021.9mb 54f -
5:42pm  -  mph 1021.9mb 54f -
5:36pm  -  mph 1021.9mb 54f -
5:30pm 11 15 mph 1021.9mb 54f 46f
5:24pm 10 14 mph 1021.9mb 54f 46f
5:18pm 11 13 mph 1022.1mb 54f 46f
5:12pm 9 11 mph 1022.2mb 54f 46f
5:06pm 7 13 mph 1022.3mb 54f 46f
5:00pm 11 14 mph 1022.2mb 54f 47f
4:54pm 10 13 mph 1022.2mb 54f 47f
4:48pm 8 10 mph 1022.1mb 54f 47f
4:42pm 8 10 mph 1022.2mb 54f 47f
4:36pm 7 11 mph 1022.3mb 54f 48f
4:30pm 10 13 mph 1022.2mb 54f 48f
4:24pm 10 14 mph 1022.2mb 54f 48f
4:18pm 10 13 mph 1022.2mb 54f 49f
4:12pm 9 13 mph 1022.2mb 54f 49f
4:06pm 9 15 mph 1022.1mb 54f 49f
4:00pm 7 10 mph 1022.2mb 54f 49f
3:54pm 7 10 mph 1022.3mb 54f 49f
3:48pm 9 14 mph 1022.1mb 54f 49f
3:42pm 11 13 mph 1022mb 54f 49f
3:36pm 9 13 mph 1022.1mb 54f 49f
3:30pm 10 14 mph 1022.2mb 54f 49f
3:24pm 11 14 mph 1022.3mb 54f 49f
3:18pm 10 13 mph 1022.4mb 54f 49f
3:12pm 9 13 mph 1022.4mb 54f 50f
3:06pm 10 14 mph 1022.5mb 54f 50f
3:00pm 10 13 mph 1022.5mb 54f 50f
2:54pm 8 14 mph 1022.5mb 54f 50f
2:48pm 8 14 mph 1022.5mb 54f 50f
2:42pm 11 14 mph 1022.5mb 54f 50f
2:36pm 11 15 mph 1022.4mb 54f 51f
2:30pm 11 14 mph 1022.3mb 53f 51f
2:24pm 7 11 mph 1022.5mb 53f 51f
2:18pm 11 14 mph 1022.6mb 53f 51f
2:12pm 8 14 mph 1022.7mb 53f 51f
2:06pm 10 14 mph 1022.7mb 53f 51f
2:00pm 9 15 mph 1022.7mb 53f 51f
1:54pm 10 14 mph 1022.7mb 53f 51f
1:48pm 10 13 mph 1022.8mb 53f 51f
1:42pm 8 13 mph 1022.8mb 53f 51f
1:36pm 9 14 mph 1022.7mb 53f 51f
1:30pm 9 13 mph 1022.7mb 53f 51f
1:24pm 10 14 mph 1022.8mb 53f 51f
1:18pm 10 15 mph 1022.8mb 53f 51f
1:12pm 10 14 mph 1022.6mb 53f 51f
1:06pm 10 15 mph 1022.7mb 53f 51f
1:00pm 11 15 mph 1022.5mb 53f 51f
12:54pm 11 15 mph 1022.5mb 53f 51f
12:48pm 10 15 mph 1022.6mb 53f 51f
12:42pm 11 15 mph 1022.6mb 53f 51f
12:36pm 8 17 mph 1022.7mb 54f 51f
12:30pm 10 15 mph 1022.7mb 54f 51f
12:24pm 11 15 mph 1023mb 54f 51f
12:18pm 11 17 mph 1023.1mb 54f 51f
12:12pm 13 16 mph 1023.1mb 54f 51f
12:06pm 11 15 mph 1023.1mb 54f 51f
12:00pm 10 15 mph 1023.1mb 54f 51f
11:54am 9 11 mph 1023.2mb 54f 51f
11:48am 10 16 mph 1023.2mb 54f 51f
11:42am 9 14 mph 1023.4mb 54f 51f
11:36am 7 14 mph 1023.6mb 54f 51f
11:30am 10 14 mph 1023.6mb 54f 50f
11:24am 8 13 mph 1023.8mb 54f 51f
11:18am 11 14 mph 1023.7mb 54f 50f
11:12am 13 16 mph 1023.7mb 54f 50f
11:06am 11 15 mph 1023.5mb 55f 50f
11:00am 10 14 mph 1023.4mb 55f 51f
10:54am 10 15 mph 1023.4mb 55f 51f
10:48am 11 15 mph 1023.4mb - -
10:42am 9 14 mph 1023.4mb - -
10:36am 13 16 mph 1023.4mb - -
10:30am 11 14 mph 1023.4mb 55f 50f
10:24am 11 13 mph 1023.5mb 55f 50f
10:18am 10 15 mph 1023.5mb 55f 50f
10:12am 10 13 mph 1023.5mb 55f 50f
10:06am 10 13 mph 1023.5mb 55f 50f
10:00am 9 13 mph 1023.6mb 55f 50f
9:54am 9 13 mph 1023.6mb 55f 50f
9:48am 10 13 mph 1023.7mb 55f 50f
9:42am 9 11 mph 1023.7mb 55f 49f
9:36am 9 11 mph 1023.9mb 55f 49f
9:30am 9 10 mph 1023.9mb 55f 49f
9:24am 7 10 mph 1023.9mb 55f 49f
9:18am 8 10 mph 1024mb 55f 49f
9:12am 9 11 mph 1024mb 55f 49f
9:06am 9 11 mph 1024mb 55f 49f
9:00am 9 11 mph 1024mb 55f 49f
8:54am 9 11 mph 1023.9mb 55f 49f
8:48am 8 10 mph 1023.9mb 55f 49f
8:42am 7 10 mph 1023.8mb 55f 49f
8:36am 6 10 mph 1023.7mb 55f 49f
8:30am 9 11 mph 1023.6mb 55f 48f
8:24am 8 10 mph 1023.6mb 55f 48f
8:18am 9 10 mph 1023.6mb 55f 48f
8:12am 7 10 mph 1023.6mb 55f 48f
8:06am 6 8 mph 1023.8mb 55f 48f
8:00am 6 7 mph 1023.7mb 55f 47f
7:54am 6 7 mph 1023.7mb 55f 47f
7:48am 6 7 mph 1023.7mb 55f 47f
7:42am 5 7 mph 1023.7mb 55f 47f
7:36am 5 6 mph 1023.8mb 55f 47f
7:30am 5 6 mph 1023.8mb 55f 47f
7:24am 3 6 mph 1023.7mb 55f 47f
7:18am 5 7 mph 1023.8mb 55f 46f
7:12am 3 6 mph 1023.8mb 55f 46f
7:06am 3 5 mph 1023.8mb 55f 46f
7:00am 3 6 mph 1023.7mb 55f 45f
6:54am 6 7 mph 1023.8mb 54f 45f
6:48am 3 6 mph 1023.7mb 54f 45f
6:42am 3 6 mph 1023.6mb 54f 45f
6:36am 5 6 mph 1023.5mb 54f 45f
6:30am 3 5 mph 1023.6mb 54f 45f
6:24am 3 6 mph 1023.5mb 54f 45f
6:18am 5 6 mph 1023.4mb 54f 45f
6:12am 2 6 mph 1023.3mb 54f 45f
6:06am 3 5 mph 1023.2mb 54f 45f
6:00am 5
mph
1023mb 54f 45f
5:54am 5
mph
1023mb 54f 45f
5:48am 3 5 mph 1023mb 54f 45f
5:42am 3 5 mph 1023mb 54f 45f
5:36am 3 5 mph 1023mb 54f 45f
5:30am 3
mph
1023mb 54f 45f
5:24am 2 3 mph 1023mb 54f 44f
5:18am 2 3 mph 1023mb 54f 44f
5:12am 2 3 mph 1023mb 54f 44f
5:06am 2 3 mph 1023mb 54f 44f
5:00am 2 3 mph 1023mb 54f 44f
4:54am 3
mph
1022.7mb 54f 44f
4:48am 3
mph
1022.7mb 54f 44f
4:42am 3
mph
1022.7mb 54f 44f
4:36am 2 3 mph 1022.7mb 54f 44f
4:30am 2 3 mph 1022.8mb 54f 44f
4:24am 2 3 mph 1022.9mb 54f 44f
4:18am 2 3 mph 1022.9mb 54f 44f
4:12am 2 3 mph 1022.9mb 54f 44f
4:06am 2 3 mph 1022.8mb 54f 44f
4:00am 3
mph
1022.8mb 54f 44f
3:54am 2 3 mph 1022.8mb 54f 44f
3:48am 2
mph
1022.8mb 54f 44f
3:42am 2
mph
1022.8mb 54f 44f
3:36am 2
mph
1022.8mb 54f 44f
3:30am 1 2 mph 1022.8mb 54f 44f
3:24am 1 2 mph 1022.8mb 54f 44f
3:18am 1 2 mph 1022.7mb 54f 44f
3:12am 1 2 mph 1022.8mb 54f 44f
3:06am 2 3 mph 1022.9mb 54f 44f
3:00am 2 3 mph 1022.9mb 54f 44f
2:54am 2 3 mph 1022.9mb 54f 44f
2:48am 2
mph
1022.9mb 54f 44f
2:42am 2
mph
1023mb 54f 44f
2:36am 2 3 mph 1023mb 54f 44f
2:30am 2 3 mph 1023mb 54f 44f
2:24am 2 3 mph 1023mb 54f 44f
2:18am 2 3 mph 1023mb 54f 44f
2:12am 2 3 mph 1022.9mb 54f 45f
2:06am 3 5 mph 1023mb 53f 44f
2:00am 3 5 mph 1023.1mb 53f 45f
1:54am 2 3 mph 1023.1mb 53f 45f
1:48am  -  mph 1023mb 53f 45f
1:42am  -  mph 1023.1mb 53f 45f
1:36am  -  mph 1022.9mb 53f 44f
1:30am 2 3 mph 1023.1mb 53f 45f
1:24am 1 2 mph 1023.1mb 53f 45f
1:18am 2 3 mph 1023.1mb 53f 45f
1:12am 2 3 mph 1023.1mb 53f 45f
1:06am 3 5 mph 1023.4mb 53f 45f
1:00am 3 6 mph 1023.5mb 53f 45f
12:54am 3 6 mph 1023.6mb 53f 45f
12:48am 3 6 mph 1023.5mb 54f 45f
12:42am 5 7 mph 1023.7mb 54f 45f
12:36am 5 8 mph 1023.8mb 54f 45f
12:30am 5 6 mph 1023.9mb 54f 45f
12:24am 3 5 mph 1023.9mb 54f 45f
12:18am 2 7 mph 1023.8mb 55f 46f
12:12am 6 7 mph 1023.9mb 55f 46f
12:06am 5 6 mph 1023.9mb 55f 46f
12:00am 2 5 mph 1024mb 55f 46f
Sat 04/30 11:54pm 2 5 mph 1023.8mb 55f 46f
11:48pm 5 8 mph 1023.9mb 55f 46f
11:42pm 6 8 mph 1024mb 55f 46f
11:36pm 6 8 mph 1023.9mb 55f 46f
11:30pm 7 8 mph 1024mb 55f 46f
11:24pm 6 9 mph 1024mb 55f 46f
11:18pm 5 8 mph 1023.9mb 55f 46f
11:12pm 6 9 mph 1023.9mb 55f 46f
11:06pm 6 9 mph 1023.8mb 55f 46f
11:00pm  -  mph - 55f -
10:54pm  -  mph - 55f -
10:48pm  -  mph 1023.8mb 55f -
10:42pm  -  mph 1023.9mb 55f -
10:36pm  -  mph 1023.9mb 55f -
10:30pm  -  mph 1024mb 55f -
10:24pm  -  mph 1023.9mb 55f -
10:18pm  -  mph 1023.9mb - 47f
10:12pm  -  mph 1024mb - 47f
10:06pm  -  mph 1024.1mb - 47f
10:00pm 6 11 mph 1024.1mb 55f 47f
9:54pm 5 10 mph 1024mb 55f 47f
9:48pm 9 13 mph 1024mb 55f -
9:42pm 9 13 mph 1024.1mb 55f -
9:36pm 10 13 mph 1024.1mb 55f -
9:30pm  -  mph 1024mb 55f -
9:24pm  -  mph 1024mb 55f -
9:18pm 7 10 mph 1023.9mb 55f -
9:12pm 10 13 mph 1023.9mb 55f -
9:06pm 8 9 mph 1023.8mb 55f -
9:00pm 8 14 mph 1023.9mb 55f 48f
8:54pm 7 13 mph 1024mb 55f 48f
8:48pm 8 9 mph 1024mb 55f -
8:42pm 8 11 mph 1024mb 55f -
8:36pm 10 11 mph 1024.1mb 55f -
8:30pm  -  mph 1024.1mb 55f 48f
8:24pm  -  mph 1024mb 56f 48f
8:18pm 9 10 mph 1023.9mb 56f -
8:12pm 8 11 mph 1023.9mb 56f -
8:06pm 10 13 mph 1023.8mb 56f -
8:00pm  -  mph 1024mb 56f 48f
7:54pm  -  mph 1023.9mb 56f 48f
7:48pm  -  mph 1023.8mb - -
7:42pm  -  mph 1023.7mb - -
7:36pm  -  mph 1023.6mb - -
7:00pm  -  mph - 55f 50f
6:54pm  -  mph - 55f 50f
6:48pm  -  mph - 55f 50f
6:42pm  -  mph - 55f 51f
6:36pm  -  mph - 55f 51f
6:30pm 10 17 mph 1023.1mb 55f 51f
6:24pm 14 18 mph 1023mb 55f 51f
6:18pm 16 22 mph 1023mb 55f -
6:12pm 15 18 mph 1023mb 55f -
6:06pm 13 21 mph 1023.1mb 54f -
6:00pm  -  mph 1023mb 54f 51f
5:54pm  -  mph 1023mb 54f 51f
5:48pm  -  mph 1023mb - -
5:42pm  -  mph 1023.1mb - -
5:36pm  -  mph 1023mb - -
5:30pm 15 21 mph 1022.9mb 54f 52f
5:24pm 17 25 mph 1022.9mb 54f 53f
5:18pm 17 23 mph 1022.8mb 54f 53f
5:12pm 17 22 mph 1022.7mb 53f 54f
5:06pm 16 22 mph 1022.6mb 53f 54f
5:00pm 17 21 mph 1022.5mb 53f 55f
4:54pm 17 21 mph 1022.5mb 53f 55f
4:48pm 14 20 mph 1022.3mb 53f 56f